Chrisanthi — SX7108 — position and weather

sailwx.info

Track history (hours):
 
Tides and Currents Weather Stations Pressure Air Temp Water Temp Dewpoint Dewpoint Depression Visibility Wind Speed Wind Dir Waves Ship Positions

Chrisanthi

Last reported at 2018-Aug-15 02:31 UTC. Time now 2018-Aug-15 02:58 UTC.
Position N 37°07' E 025°21'.

Length 56 m; draft 3.9 m.

Type: Ship (hazmat cat A). MMSI: 237009100.

Date/timePositionNaut miles runAvg speedWind from/ knotsBaromVisibWave heightAir tempDewpointWater temp
2018-Aug-15 02:31N 37°07' E 025°21'1 2.8
2018-Aug-15 02:00N 37°06' E 025°22'0 0.0
2018-Aug-15 01:31N 37°06' E 025°22'0 0.0
2018-Aug-15 01:01N 37°06' E 025°22'0 0.0
2018-Aug-15 00:30N 37°06' E 025°22'0 0.0
2018-Aug-15 00:01N 37°06' E 025°22'0 0.0
2018-Aug-14 23:30N 37°06' E 025°22'0 0.0
2018-Aug-14 23:01N 37°06' E 025°22'0 0.0
2018-Aug-14 22:30N 37°06' E 025°22'0 0.0
2018-Aug-14 22:01N 37°06' E 025°22'0 0.0
2018-Aug-14 21:31N 37°06' E 025°22'1 1.2
2018-Aug-14 20:59N 37°06' E 025°22'0 0.1
2018-Aug-14 20:31N 37°06' E 025°22'0 0.0
2018-Aug-14 20:00N 37°06' E 025°22'0 0.0
2018-Aug-14 19:31N 37°06' E 025°22'0 0.0
2018-Aug-14 19:01N 37°06' E 025°22'1 1.2
2018-Aug-14 18:31N 37°06' E 025°22'0 0.1
2018-Aug-14 18:00N 37°06' E 025°22'1 1.2
2018-Aug-14 17:31N 37°06' E 025°22'1 1.2
2018-Aug-14 17:00N 37°06' E 025°22'0 0.0
2018-Aug-14 16:31N 37°06' E 025°22'0 0.0
2018-Aug-14 16:01N 37°06' E 025°22'0 0.0
2018-Aug-14 15:31N 37°06' E 025°22'1 1.2
2018-Aug-14 15:00N 37°06' E 025°22'0 0.0
2018-Aug-14 14:31N 37°06' E 025°22'0 0.0
2018-Aug-14 13:59N 37°06' E 025°22'0 0.0
2018-Aug-14 13:30N 37°06' E 025°22'0 0.4
2018-Aug-14 13:01N 37°06' E 025°22'4 7.1
2018-Aug-14 12:30N 37°04' E 025°18'4 8.5
2018-Aug-14 12:00N 36°60' E 025°16'13 0.5
2018-Aug-13 10:22N 37°03' E 025°01'3 8.4
2018-Aug-13 10:00N 37°06' E 025°03'3 5.2
2018-Aug-13 09:30N 37°06' E 025°07'2 0.1
2018-Aug-12 16:12N 37°05' E 025°09'1 6.9
2018-Aug-12 16:00N 37°06' E 025°07'5 9.4
2018-Aug-12 15:28N 37°10' E 025°12'4 9.4
2018-Aug-12 14:59N 37°11' E 025°17'510.4
2018-Aug-12 14:30N 37°11' E 025°23'510.4
2018-Aug-12 14:00N 37°12' E 025°30'6 9.2
2018-Aug-12 13:18N 37°13' E 025°38'3 9.7
2018-Aug-12 13:00N 37°15' E 025°41'5 9.7
2018-Aug-12 12:30N 37°16' E 025°47'5 9.6
2018-Aug-12 12:00N 37°18' E 025°52'  
2018-Aug-09 06:37N 36°59' E 025°17'111.2
2018-Aug-09 06:30N 37°00' E 025°18'510.7
2018-Aug-09 06:00N 37°05' E 025°20'2 4.2
2018-Aug-09 05:30N 37°06' E 025°22'0 0.0
2018-Aug-09 05:00N 37°06' E 025°22'0 0.0
2018-Aug-09 04:30N 37°06' E 025°22'0 0.0
2018-Aug-09 04:00N 37°06' E 025°22'0 0.1
2018-Aug-09 03:30N 37°06' E 025°22'1 1.3
2018-Aug-09 03:00N 37°06' E 025°22'1 1.1
2018-Aug-09 02:30N 37°06' E 025°22'0 0.2
2018-Aug-09 02:00N 37°06' E 025°22'0 0.0
2018-Aug-09 01:30N 37°06' E 025°22'0 0.0
2018-Aug-09 01:00N 37°06' E 025°22'0 0.0
2018-Aug-09 00:30N 37°06' E 025°22'0 0.0
2018-Aug-09 00:00N 37°06' E 025°22'0 0.0
2018-Aug-08 23:30N 37°06' E 025°22'2 3.1
2018-Aug-08 23:00N 37°07' E 025°21'5 9.2
2018-Aug-08 22:30N 37°11' E 025°17'5 9.0
2018-Aug-08 22:00N 37°10' E 025°11'4 9.3
2018-Aug-08 21:31N 37°10' E 025°05'4 9.0
2018-Aug-08 21:01N 37°10' E 024°60'4 8.7
2018-Aug-08 20:30N 37°11' E 024°54'62 8.8
2018-Aug-08 13:25N 37°33' E 023°41'4 9.9
2018-Aug-08 13:00N 37°35' E 023°37'5 9.9
2018-Aug-08 12:31N 37°37' E 023°31'5 9.7
2018-Aug-08 12:01N 37°39' E 023°25'5 9.8
2018-Aug-08 11:30N 37°40' E 023°19'5 9.9
2018-Aug-08 10:57N 37°45' E 023°15'510.1
2018-Aug-08 10:30N 37°49' E 023°12'510.3
2018-Aug-08 10:01N 37°53' E 023°08'3 6.8
2018-Aug-08 09:31N 37°55' E 023°05'0 0.0
2018-Aug-08 09:00N 37°55' E 023°05'0 0.0
2018-Aug-08 08:30N 37°55' E 023°05'0 0.0
2018-Aug-08 08:01N 37°55' E 023°05'0 0.0
2018-Aug-08 07:31N 37°55' E 023°05'0 0.0
2018-Aug-08 07:00N 37°55' E 023°05'0 0.0
2018-Aug-08 06:30N 37°55' E 023°05'0 0.0
2018-Aug-08 06:00N 37°55' E 023°05'0 0.0
2018-Aug-08 05:30N 37°55' E 023°05'0 0.0
2018-Aug-08 05:01N 37°55' E 023°05'0 0.0
2018-Aug-08 04:30N 37°55' E 023°05'0 0.0
2018-Aug-08 04:00N 37°55' E 023°05'0 0.0
2018-Aug-08 03:30N 37°55' E 023°05'0 0.0
2018-Aug-08 03:00N 37°55' E 023°05'0 0.0
2018-Aug-08 02:30N 37°55' E 023°05'0 0.0
2018-Aug-08 02:00N 37°55' E 023°05'0 0.0
2018-Aug-08 01:30N 37°55' E 023°05'0 0.0
2018-Aug-08 01:00N 37°55' E 023°05'0 0.0
2018-Aug-08 00:31N 37°55' E 023°05'0 0.0
2018-Aug-08 00:00N 37°55' E 023°05'0 0.0
2018-Aug-07 23:30N 37°55' E 023°05'0 0.0
2018-Aug-07 23:01N 37°55' E 023°05'0 0.0
2018-Aug-07 22:30N 37°55' E 023°05'0 0.0
2018-Aug-07 22:00N 37°55' E 023°05'0 0.0
2018-Aug-07 21:30N 37°55' E 023°05'0 0.0
2018-Aug-07 21:00N 37°55' E 023°05'0 0.0
2018-Aug-07 20:30N 37°55' E 023°05'0 0.0
2018-Aug-07 20:00N 37°55' E 023°05'0 0.0
2018-Aug-07 19:31N 37°55' E 023°05'0 0.0
2018-Aug-07 19:00N 37°55' E 023°05'0 0.0
2018-Aug-07 18:30N 37°55' E 023°05'0 0.0
2018-Aug-07 18:01N 37°55' E 023°05'0 0.0
2018-Aug-07 17:30N 37°55' E 023°05'0 0.0
2018-Aug-07 17:01N 37°55' E 023°05'0 0.0
2018-Aug-07 16:30N 37°55' E 023°05'0 0.0
2018-Aug-07 16:00N 37°55' E 023°05'0 0.0
2018-Aug-07 15:30N 37°55' E 023°05'0 0.0
2018-Aug-07 15:01N 37°55' E 023°05'0 0.0
2018-Aug-07 14:30N 37°55' E 023°05'0 0.0
2018-Aug-07 14:00N 37°55' E 023°05'0 0.0
2018-Aug-07 13:31N 37°55' E 023°05'0 0.0
2018-Aug-07 13:00N 37°55' E 023°05'0 0.0
2018-Aug-07 12:30N 37°55' E 023°05'0 0.0
2018-Aug-07 12:00N 37°55' E 023°05'0 0.0
2018-Aug-07 11:30N 37°55' E 023°05'0 0.0
2018-Aug-07 11:00N 37°55' E 023°05'1 1.3
2018-Aug-07 10:30N 37°54' E 023°06'4 8.5
2018-Aug-07 10:00N 37°52' E 023°10'5 9.2
2018-Aug-07 09:31N 37°48' E 023°13'5 9.6
2018-Aug-07 09:00N 37°44' E 023°16'5 9.3
2018-Aug-07 08:29N 37°40' E 023°20'5 9.5
2018-Aug-07 08:00N 37°39' E 023°26'5 9.7
2018-Aug-07 07:29N 37°37' E 023°31'5 9.6
2018-Aug-07 06:59N 37°35' E 023°37'65 9.9
2018-Aug-07 00:24N 37°09' E 024°52'4 9.8
2018-Aug-07 00:01N 37°09' E 024°57'5 9.5
2018-Aug-06 23:29N 37°07' E 025°03'5 0.6
2018-Aug-06 15:10N 37°06' E 025°08'0 0.2
2018-Aug-06 14:58N 37°05' E 025°08'0 0.0
2018-Aug-06 14:30N 37°05' E 025°08'0 0.0
2018-Aug-06 14:00N 37°05' E 025°08'0 0.0
2018-Aug-06 13:24N 37°05' E 025°08'1 1.9
2018-Aug-06 12:59N 37°06' E 025°07'5 9.7
2018-Aug-06 12:30N 37°09' E 025°11'510.2
2018-Aug-06 12:00N 37°10' E 025°18'4 8.4
2018-Aug-06 11:30N 37°06' E 025°18'4 8.8
2018-Aug-06 11:00N 37°01' E 025°19'3 0.6
2018-Aug-06 06:13N 36°59' E 025°21'210.1
2018-Aug-06 06:01N 37°01' E 025°20'5 8.8
2018-Aug-06 05:30N 37°06' E 025°21'1 2.9
2018-Aug-06 05:00N 37°06' E 025°22'0 0.0
2018-Aug-06 04:31N 37°06' E 025°22'0 0.0
2018-Aug-06 04:00N 37°06' E 025°22'0 0.1
2018-Aug-06 03:31N 37°06' E 025°22'1 1.3
2018-Aug-06 03:00N 37°06' E 025°22'0 0.0
2018-Aug-06 02:30N 37°06' E 025°22'0 0.1
2018-Aug-06 02:00N 37°06' E 025°22'1 1.2
2018-Aug-06 01:30N 37°06' E 025°22'0 0.0
2018-Aug-06 01:00N 37°06' E 025°22'0 0.0
2018-Aug-06 00:30N 37°06' E 025°22'0 0.0
2018-Aug-06 00:00N 37°06' E 025°22'0 0.0
2018-Aug-05 23:30N 37°06' E 025°22'0 0.0
2018-Aug-05 23:00N 37°06' E 025°22'0 0.0
2018-Aug-05 22:30N 37°06' E 025°22'0 0.1
2018-Aug-05 22:00N 37°06' E 025°22'4 7.2
2018-Aug-05 21:30N 37°04' E 025°18'5 9.2
2018-Aug-05 21:00N 37°00' E 025°17'  
Track history (hours):
 
Tides and Currents Weather Stations Pressure Air Temp Water Temp Dewpoint Dewpoint Depression Visibility Wind Speed Wind Dir Waves Ship Positions

Chrisanthi

Last reported at 2018-Aug-15 02:31 UTC. Time now 2018-Aug-15 02:58 UTC.
Position N 37°07' E 025°21'.

Length 56 m; draft 3.9 m.

Type: Ship (hazmat cat A). MMSI: 237009100.

Date/timePositionNaut miles runAvg speedWind from/ knotsBaromVisibWave heightAir tempDewpointWater temp
2018-Aug-15 02:31N 37°07' E 025°21'1 2.8
2018-Aug-15 02:00N 37°06' E 025°22'0 0.0
2018-Aug-15 01:31N 37°06' E 025°22'0 0.0
2018-Aug-15 01:01N 37°06' E 025°22'0 0.0
2018-Aug-15 00:30N 37°06' E 025°22'0 0.0
2018-Aug-15 00:01N 37°06' E 025°22'0 0.0
2018-Aug-14 23:30N 37°06' E 025°22'0 0.0
2018-Aug-14 23:01N 37°06' E 025°22'0 0.0
2018-Aug-14 22:30N 37°06' E 025°22'0 0.0
2018-Aug-14 22:01N 37°06' E 025°22'0 0.0
2018-Aug-14 21:31N 37°06' E 025°22'1 1.2
2018-Aug-14 20:59N 37°06' E 025°22'0 0.1
2018-Aug-14 20:31N 37°06' E 025°22'0 0.0
2018-Aug-14 20:00N 37°06' E 025°22'0 0.0
2018-Aug-14 19:31N 37°06' E 025°22'0 0.0
2018-Aug-14 19:01N 37°06' E 025°22'1 1.2
2018-Aug-14 18:31N 37°06' E 025°22'0 0.1
2018-Aug-14 18:00N 37°06' E 025°22'1 1.2
2018-Aug-14 17:31N 37°06' E 025°22'1 1.2
2018-Aug-14 17:00N 37°06' E 025°22'0 0.0
2018-Aug-14 16:31N 37°06' E 025°22'0 0.0
2018-Aug-14 16:01N 37°06' E 025°22'0 0.0
2018-Aug-14 15:31N 37°06' E 025°22'1 1.2
2018-Aug-14 15:00N 37°06' E 025°22'0 0.0
2018-Aug-14 14:31N 37°06' E 025°22'0 0.0
2018-Aug-14 13:59N 37°06' E 025°22'0 0.0
2018-Aug-14 13:30N 37°06' E 025°22'0 0.4
2018-Aug-14 13:01N 37°06' E 025°22'4 7.1
2018-Aug-14 12:30N 37°04' E 025°18'4 8.5
2018-Aug-14 12:00N 36°60' E 025°16'13 0.5
2018-Aug-13 10:22N 37°03' E 025°01'3 8.4
2018-Aug-13 10:00N 37°06' E 025°03'3 5.2
2018-Aug-13 09:30N 37°06' E 025°07'2 0.1
2018-Aug-12 16:12N 37°05' E 025°09'1 6.9
2018-Aug-12 16:00N 37°06' E 025°07'5 9.4
2018-Aug-12 15:28N 37°10' E 025°12'4 9.4
2018-Aug-12 14:59N 37°11' E 025°17'510.4
2018-Aug-12 14:30N 37°11' E 025°23'510.4
2018-Aug-12 14:00N 37°12' E 025°30'6 9.2
2018-Aug-12 13:18N 37°13' E 025°38'3 9.7
2018-Aug-12 13:00N 37°15' E 025°41'5 9.7
2018-Aug-12 12:30N 37°16' E 025°47'5 9.6
2018-Aug-12 12:00N 37°18' E 025°52'  
2018-Aug-09 06:37N 36°59' E 025°17'111.2
2018-Aug-09 06:30N 37°00' E 025°18'510.7
2018-Aug-09 06:00N 37°05' E 025°20'2 4.2
2018-Aug-09 05:30N 37°06' E 025°22'0 0.0
2018-Aug-09 05:00N 37°06' E 025°22'0 0.0
2018-Aug-09 04:30N 37°06' E 025°22'0 0.0
2018-Aug-09 04:00N 37°06' E 025°22'0 0.1
2018-Aug-09 03:30N 37°06' E 025°22'1 1.3
2018-Aug-09 03:00N 37°06' E 025°22'1 1.1
2018-Aug-09 02:30N 37°06' E 025°22'0 0.2
2018-Aug-09 02:00N 37°06' E 025°22'0 0.0
2018-Aug-09 01:30N 37°06' E 025°22'0 0.0
2018-Aug-09 01:00N 37°06' E 025°22'0 0.0
2018-Aug-09 00:30N 37°06' E 025°22'0 0.0
2018-Aug-09 00:00N 37°06' E 025°22'0 0.0
2018-Aug-08 23:30N 37°06' E 025°22'2 3.1
2018-Aug-08 23:00N 37°07' E 025°21'5 9.2
2018-Aug-08 22:30N 37°11' E 025°17'5 9.0
2018-Aug-08 22:00N 37°10' E 025°11'4 9.3
2018-Aug-08 21:31N 37°10' E 025°05'4 9.0
2018-Aug-08 21:01N 37°10' E 024°60'4 8.7
2018-Aug-08 20:30N 37°11' E 024°54'62 8.8
2018-Aug-08 13:25N 37°33' E 023°41'4 9.9
2018-Aug-08 13:00N 37°35' E 023°37'5 9.9
2018-Aug-08 12:31N 37°37' E 023°31'5 9.7
2018-Aug-08 12:01N 37°39' E 023°25'5 9.8
2018-Aug-08 11:30N 37°40' E 023°19'5 9.9
2018-Aug-08 10:57N 37°45' E 023°15'510.1
2018-Aug-08 10:30N 37°49' E 023°12'510.3
2018-Aug-08 10:01N 37°53' E 023°08'3 6.8
2018-Aug-08 09:31N 37°55' E 023°05'0 0.0
2018-Aug-08 09:00N 37°55' E 023°05'0 0.0
2018-Aug-08 08:30N 37°55' E 023°05'0 0.0
2018-Aug-08 08:01N 37°55' E 023°05'0 0.0
2018-Aug-08 07:31N 37°55' E 023°05'0 0.0
2018-Aug-08 07:00N 37°55' E 023°05'0 0.0
2018-Aug-08 06:30N 37°55' E 023°05'0 0.0
2018-Aug-08 06:00N 37°55' E 023°05'0 0.0
2018-Aug-08 05:30N 37°55' E 023°05'0 0.0
2018-Aug-08 05:01N 37°55' E 023°05'0 0.0
2018-Aug-08 04:30N 37°55' E 023°05'0 0.0
2018-Aug-08 04:00N 37°55' E 023°05'0 0.0
2018-Aug-08 03:30N 37°55' E 023°05'0 0.0
2018-Aug-08 03:00N 37°55' E 023°05'0 0.0
2018-Aug-08 02:30N 37°55' E 023°05'0 0.0
2018-Aug-08 02:00N 37°55' E 023°05'0 0.0
2018-Aug-08 01:30N 37°55' E 023°05'0 0.0
2018-Aug-08 01:00N 37°55' E 023°05'0 0.0
2018-Aug-08 00:31N 37°55' E 023°05'0 0.0
2018-Aug-08 00:00N 37°55' E 023°05'0 0.0
2018-Aug-07 23:30N 37°55' E 023°05'0 0.0
2018-Aug-07 23:01N 37°55' E 023°05'0 0.0
2018-Aug-07 22:30N 37°55' E 023°05'0 0.0
2018-Aug-07 22:00N 37°55' E 023°05'0 0.0
2018-Aug-07 21:30N 37°55' E 023°05'0 0.0
2018-Aug-07 21:00N 37°55' E 023°05'0 0.0
2018-Aug-07 20:30N 37°55' E 023°05'0 0.0
2018-Aug-07 20:00N 37°55' E 023°05'0 0.0
2018-Aug-07 19:31N 37°55' E 023°05'0 0.0
2018-Aug-07 19:00N 37°55' E 023°05'0 0.0
2018-Aug-07 18:30N 37°55' E 023°05'0 0.0
2018-Aug-07 18:01N 37°55' E 023°05'0 0.0
2018-Aug-07 17:30N 37°55' E 023°05'0 0.0
2018-Aug-07 17:01N 37°55' E 023°05'0 0.0
2018-Aug-07 16:30N 37°55' E 023°05'0 0.0
2018-Aug-07 16:00N 37°55' E 023°05'0 0.0
2018-Aug-07 15:30N 37°55' E 023°05'0 0.0
2018-Aug-07 15:01N 37°55' E 023°05'0 0.0
2018-Aug-07 14:30N 37°55' E 023°05'0 0.0
2018-Aug-07 14:00N 37°55' E 023°05'0 0.0
2018-Aug-07 13:31N 37°55' E 023°05'0 0.0
2018-Aug-07 13:00N 37°55' E 023°05'0 0.0
2018-Aug-07 12:30N 37°55' E 023°05'0 0.0
2018-Aug-07 12:00N 37°55' E 023°05'0 0.0
2018-Aug-07 11:30N 37°55' E 023°05'0 0.0
2018-Aug-07 11:00N 37°55' E 023°05'1 1.3
2018-Aug-07 10:30N 37°54' E 023°06'4 8.5
2018-Aug-07 10:00N 37°52' E 023°10'5 9.2
2018-Aug-07 09:31N 37°48' E 023°13'5 9.6
2018-Aug-07 09:00N 37°44' E 023°16'5 9.3
2018-Aug-07 08:29N 37°40' E 023°20'5 9.5
2018-Aug-07 08:00N 37°39' E 023°26'5 9.7
2018-Aug-07 07:29N 37°37' E 023°31'5 9.6
2018-Aug-07 06:59N 37°35' E 023°37'65 9.9
2018-Aug-07 00:24N 37°09' E 024°52'4 9.8
2018-Aug-07 00:01N 37°09' E 024°57'5 9.5
2018-Aug-06 23:29N 37°07' E 025°03'5 0.6
2018-Aug-06 15:10N 37°06' E 025°08'0 0.2
2018-Aug-06 14:58N 37°05' E 025°08'0 0.0
2018-Aug-06 14:30N 37°05' E 025°08'0 0.0
2018-Aug-06 14:00N 37°05' E 025°08'0 0.0
2018-Aug-06 13:24N 37°05' E 025°08'1 1.9
2018-Aug-06 12:59N 37°06' E 025°07'5 9.7
2018-Aug-06 12:30N 37°09' E 025°11'510.2
2018-Aug-06 12:00N 37°10' E 025°18'4 8.4
2018-Aug-06 11:30N 37°06' E 025°18'4 8.8
2018-Aug-06 11:00N 37°01' E 025°19'3 0.6
2018-Aug-06 06:13N 36°59' E 025°21'210.1
2018-Aug-06 06:01N 37°01' E 025°20'5 8.8
2018-Aug-06 05:30N 37°06' E 025°21'1 2.9
2018-Aug-06 05:00N 37°06' E 025°22'0 0.0
2018-Aug-06 04:31N 37°06' E 025°22'0 0.0
2018-Aug-06 04:00N 37°06' E 025°22'0 0.1
2018-Aug-06 03:31N 37°06' E 025°22'1 1.3
2018-Aug-06 03:00N 37°06' E 025°22'0 0.0
2018-Aug-06 02:30N 37°06' E 025°22'0 0.1
2018-Aug-06 02:00N 37°06' E 025°22'1 1.2
2018-Aug-06 01:30N 37°06' E 025°22'0 0.0
2018-Aug-06 01:00N 37°06' E 025°22'0 0.0
2018-Aug-06 00:30N 37°06' E 025°22'0 0.0
2018-Aug-06 00:00N 37°06' E 025°22'0 0.0
2018-Aug-05 23:30N 37°06' E 025°22'0 0.0
2018-Aug-05 23:00N 37°06' E 025°22'0 0.0
2018-Aug-05 22:30N 37°06' E 025°22'0 0.1
2018-Aug-05 22:00N 37°06' E 025°22'4 7.2
2018-Aug-05 21:30N 37°04' E 025°18'5 9.2
2018-Aug-05 21:00N 37°00' E 025°17'  

Dump ship's entire track history